createdAt,value
2022-09-14T00:00:24.068Z,96.14
2022-09-14T00:02:51.933Z,95.93
2022-09-14T00:05:19.446Z,96.45
2022-09-14T00:07:46.960Z,96.34
2022-09-14T00:10:14.858Z,96.63
2022-09-14T00:12:42.385Z,96.99
2022-09-14T00:15:10.680Z,97.44
2022-09-14T00:17:39.436Z,97.14
2022-09-14T00:20:07.778Z,97.49
2022-09-14T00:22:35.212Z,97.87
2022-09-14T00:25:02.639Z,97.58
2022-09-14T00:27:30.081Z,97.67
2022-09-14T00:29:57.513Z,97.85
2022-09-14T00:32:25.171Z,97.69
2022-09-14T00:34:53.976Z,97.31
2022-09-14T00:37:21.403Z,97.34
2022-09-14T00:39:49.672Z,97.64
2022-09-14T00:42:19.363Z,97.41
2022-09-14T00:45:14.560Z,97.39
2022-09-14T00:47:43.179Z,97.57
2022-09-14T00:50:12.636Z,97.80
2022-09-14T00:52:42.991Z,98.04
2022-09-14T00:55:13.059Z,98.40
2022-09-14T00:57:45.014Z,98.38
2022-09-14T01:00:14.656Z,98.32
2022-09-14T01:02:42.513Z,98.31
2022-09-14T01:05:12.820Z,98.22
2022-09-14T01:07:57.006Z,98.34
2022-09-14T01:10:34.213Z,98.04
2022-09-14T01:13:19.620Z,97.65
2022-09-14T01:15:59.787Z,97.57
2022-09-14T01:18:37.364Z,97.74
2022-09-14T01:21:11.052Z,97.84
2022-09-14T01:23:48.029Z,97.96
2022-09-14T01:26:39.247Z,97.85
2022-09-14T01:29:14.539Z,97.76
2022-09-14T01:31:50.604Z,97.91
2022-09-14T01:34:25.146Z,97.88
2022-09-14T01:36:58.745Z,98.05
2022-09-14T01:39:30.723Z,97.64
2022-09-14T01:42:01.353Z,97.78
2022-09-14T01:44:34.040Z,97.85
2022-09-14T01:47:05.988Z,97.80
2022-09-14T01:49:39.738Z,97.64
2022-09-14T01:52:12.122Z,97.67
2022-09-14T01:54:44.277Z,98.05
2022-09-14T01:57:16.419Z,97.97
2022-09-14T01:59:46.894Z,97.82
2022-09-14T02:02:17.928Z,97.53
2022-09-14T02:04:50.217Z,96.74
2022-09-14T02:07:18.652Z,97.36
2022-09-14T02:09:48.112Z,97.59
2022-09-14T02:12:16.636Z,97.57
2022-09-14T02:14:46.583Z,97.48
2022-09-14T02:17:14.891Z,97.67
2022-09-14T02:19:48.170Z,97.57
2022-09-14T02:22:15.734Z,97.38
2022-09-14T02:24:43.506Z,97.88
2022-09-14T02:27:11.023Z,97.44
2022-09-14T02:29:39.014Z,96.46
2022-09-14T02:32:19.559Z,96.61
2022-09-14T02:34:57.458Z,96.83
2022-09-14T02:37:36.386Z,97.09
2022-09-14T02:40:11.826Z,97.27
2022-09-14T02:42:53.217Z,97.68
2022-09-14T02:45:29.775Z,97.75
2022-09-14T02:48:05.664Z,97.90
2022-09-14T02:50:41.627Z,98.03
2022-09-14T02:53:15.637Z,98.07
2022-09-14T02:55:47.962Z,98.18
2022-09-14T02:58:15.972Z,98.09
2022-09-14T03:00:45.301Z,98.33
2022-09-14T03:03:15.564Z,98.33
2022-09-14T03:05:43.832Z,98.55
2022-09-14T03:08:11.999Z,98.48
2022-09-14T03:10:39.568Z,98.47
2022-09-14T03:13:06.991Z,98.69
2022-09-14T03:15:34.419Z,98.59
2022-09-14T03:18:01.811Z,98.50
2022-09-14T03:20:33.878Z,98.93
2022-09-14T03:23:02.330Z,98.52
2022-09-14T03:25:30.140Z,98.14
2022-09-14T03:27:59.853Z,98.32
2022-09-14T03:30:27.799Z,98.78
2022-09-14T03:32:55.192Z,98.70
2022-09-14T03:35:22.679Z,98.55
2022-09-14T03:37:51.467Z,98.49
2022-09-14T03:40:21.848Z,99.21
2022-09-14T03:42:52.448Z,99.39
2022-09-14T03:45:21.995Z,99.25
2022-09-14T03:47:50.010Z,99.06
2022-09-14T03:50:18.888Z,99.11
2022-09-14T03:52:46.338Z,99.44
2022-09-14T03:55:15.584Z,99.84
2022-09-14T03:57:43.035Z,99.59
2022-09-14T04:00:12.094Z,99.62
2022-09-14T04:02:39.820Z,99.13
2022-09-14T04:05:08.055Z,98.80
2022-09-14T04:07:35.508Z,99.07
2022-09-14T04:10:03.283Z,98.75
2022-09-14T04:12:36.208Z,98.49
2022-09-14T04:15:04.152Z,98.33
2022-09-14T04:17:31.592Z,98.24
2022-09-14T04:19:59.028Z,97.92
2022-09-14T04:22:26.466Z,97.90
2022-09-14T04:24:54.578Z,97.80
2022-09-14T04:27:22.099Z,98.14
2022-09-14T04:29:51.312Z,98.12
2022-09-14T04:32:18.744Z,98.13
2022-09-14T04:34:46.297Z,98.42
2022-09-14T04:37:13.733Z,98.68
2022-09-14T04:39:42.368Z,98.74
2022-09-14T04:42:09.851Z,98.63
2022-09-14T04:44:37.275Z,98.07
2022-09-14T04:47:06.204Z,97.71
2022-09-14T04:49:33.655Z,97.56
2022-09-14T04:52:01.099Z,98.18
2022-09-14T04:54:28.627Z,98.84
2022-09-14T04:56:58.943Z,98.38
2022-09-14T04:59:26.399Z,98.47
2022-09-14T05:01:53.938Z,98.61
2022-09-14T05:04:22.798Z,98.74
2022-09-14T05:06:50.968Z,98.88
2022-09-14T05:09:19.557Z,99.29
2022-09-14T05:11:47.000Z,98.95
2022-09-14T05:14:15.228Z,99.01
2022-09-14T05:16:44.229Z,98.97
2022-09-14T05:19:15.099Z,99.06
2022-09-14T05:21:43.845Z,98.78
2022-09-14T05:24:14.584Z,98.59
2022-09-14T05:26:43.095Z,98.46
2022-09-14T05:29:13.616Z,98.29
2022-09-14T05:31:41.373Z,97.85
2022-09-14T05:34:10.037Z,97.83
2022-09-14T05:36:37.567Z,97.96
2022-09-14T05:39:06.790Z,97.82
2022-09-14T05:41:34.200Z,97.68
2022-09-14T05:44:01.688Z,97.40
2022-09-14T05:46:29.136Z,98.13
2022-09-14T05:48:56.617Z,98.74
2022-09-14T05:51:27.179Z,98.70
2022-09-14T05:53:56.724Z,99.04
2022-09-14T05:56:27.513Z,98.61
2022-09-14T05:58:55.339Z,98.50
2022-09-14T06:01:24.335Z,98.70
2022-09-14T06:03:54.736Z,98.70
2022-09-14T06:06:23.146Z,98.37
2022-09-14T06:08:52.543Z,98.03
2022-09-14T06:11:22.360Z,98.34
2022-09-14T06:13:51.594Z,98.25
2022-09-14T06:16:20.613Z,98.18
2022-09-14T06:18:49.043Z,98.88
2022-09-14T06:21:19.787Z,98.24
2022-09-14T06:23:48.619Z,98.27
2022-09-14T06:26:17.048Z,98.24
2022-09-14T06:28:45.005Z,98.24
2022-09-14T06:31:14.888Z,98.23
2022-09-14T06:33:45.405Z,98.49
2022-09-14T06:36:14.950Z,98.13
2022-09-14T06:38:43.022Z,98.43
2022-09-14T06:41:14.080Z,98.55
2022-09-14T06:43:43.327Z,98.24
2022-09-14T06:46:14.556Z,98.34
2022-09-14T06:48:45.059Z,98.28
2022-09-14T06:51:14.675Z,98.19
2022-09-14T06:53:42.428Z,98.52
2022-09-14T06:56:09.880Z,98.64
2022-09-14T06:58:37.398Z,99.09
2022-09-14T07:01:05.388Z,99.05
2022-09-14T07:03:37.132Z,99.37
2022-09-14T07:06:06.307Z,98.89
2022-09-14T07:08:34.296Z,98.17
2022-09-14T07:11:01.803Z,97.94
2022-09-14T07:13:30.541Z,97.84
2022-09-14T07:15:58.252Z,97.58
2022-09-14T07:18:32.151Z,97.20
2022-09-14T07:21:05.684Z,97.55
2022-09-14T07:23:33.798Z,97.44
2022-09-14T07:26:05.026Z,97.38
2022-09-14T07:28:33.174Z,97.02
2022-09-14T07:31:01.404Z,97.45
2022-09-14T07:33:29.011Z,97.12
2022-09-14T07:36:04.944Z,96.67
2022-09-14T07:38:50.937Z,96.77
2022-09-14T07:41:20.056Z,96.49
2022-09-14T07:43:49.911Z,96.05
2022-09-14T07:46:17.463Z,95.73
2022-09-14T07:48:44.921Z,96.15
2022-09-14T07:51:13.197Z,96.25
2022-09-14T07:53:43.633Z,96.19
2022-09-14T07:56:13.162Z,95.81
2022-09-14T07:58:41.967Z,96.16
2022-09-14T08:01:11.755Z,95.81
2022-09-14T08:03:40.596Z,95.68
2022-09-14T08:06:10.733Z,96.69
2022-09-14T08:08:39.799Z,96.67
2022-09-14T08:11:11.535Z,96.58
2022-09-14T08:13:41.010Z,96.67
2022-09-14T08:16:08.906Z,96.27
2022-09-14T08:18:37.986Z,96.08
2022-09-14T08:21:06.836Z,95.58
2022-09-14T08:23:34.836Z,95.52
2022-09-14T08:26:05.982Z,95.03
2022-09-14T08:28:36.215Z,95.06
2022-09-14T08:31:05.572Z,95.52
2022-09-14T08:33:34.486Z,94.83
2022-09-14T08:36:02.718Z,94.97
2022-09-14T08:38:30.516Z,94.62
2022-09-14T08:40:59.748Z,95.15
2022-09-14T08:43:28.631Z,94.72
2022-09-14T08:46:09.515Z,94.89
2022-09-14T08:48:42.492Z,94.17
2022-09-14T08:51:10.104Z,93.40
2022-09-14T08:53:41.370Z,93.94
2022-09-14T08:56:15.940Z,93.54
2022-09-14T08:58:55.722Z,94.11
2022-09-14T09:01:39.297Z,94.87
2022-09-14T09:04:25.839Z,95.37
2022-09-14T09:07:00.851Z,95.18
2022-09-14T09:09:34.983Z,95.10
2022-09-14T09:12:02.801Z,95.58
2022-09-14T09:14:35.121Z,95.56
2022-09-14T09:17:11.104Z,95.13
2022-09-14T09:19:42.638Z,94.83
2022-09-14T09:22:15.925Z,94.49
2022-09-14T09:24:49.761Z,94.54
2022-09-14T09:27:17.750Z,94.73
2022-09-14T09:29:45.717Z,93.92
2022-09-14T09:32:18.983Z,94.01
2022-09-14T09:34:46.555Z,93.85
2022-09-14T09:37:15.933Z,93.58
2022-09-14T09:39:44.638Z,92.75
2022-09-14T09:42:15.778Z,93.23
2022-09-14T09:45:02.510Z,92.97
2022-09-14T09:47:35.481Z,93.56
2022-09-14T09:50:05.444Z,93.56
2022-09-14T09:52:34.619Z,93.55
2022-09-14T09:55:04.123Z,93.84
2022-09-14T09:57:33.891Z,92.75
2022-09-14T10:00:21.076Z,92.51
2022-09-14T10:02:50.895Z,92.84
2022-09-14T10:05:24.163Z,93.21
2022-09-14T10:07:57.000Z,93.37
2022-09-14T10:10:27.978Z,93.88
2022-09-14T10:12:57.166Z,94.26
2022-09-14T10:15:26.764Z,94.49
2022-09-14T10:17:57.806Z,94.55
2022-09-14T10:20:26.757Z,95.01
2022-09-14T10:22:54.426Z,95.41
2022-09-14T10:25:24.915Z,95.90
2022-09-14T10:28:02.139Z,95.55
2022-09-14T10:30:34.508Z,96.11
2022-09-14T10:33:05.668Z,95.97
2022-09-14T10:35:47.324Z,95.94
2022-09-14T10:38:31.356Z,95.35
2022-09-14T10:41:10.157Z,95.36
2022-09-14T10:43:49.648Z,95.56
2022-09-14T10:46:22.155Z,95.19
2022-09-14T10:49:05.143Z,95.76
2022-09-14T10:51:44.253Z,95.50
2022-09-14T10:54:27.002Z,95.30
2022-09-14T10:57:07.676Z,95.11
2022-09-14T10:59:46.535Z,95.17
2022-09-14T11:02:50.749Z,94.97
2022-09-14T11:05:25.057Z,94.51
2022-09-14T11:08:08.702Z,93.08
2022-09-14T11:10:44.954Z,92.58
2022-09-14T11:13:38.552Z,92.70
2022-09-14T11:16:17.295Z,93.10
2022-09-14T11:18:55.012Z,92.07
2022-09-14T11:21:32.866Z,91.49
2022-09-14T11:24:06.488Z,90.70
2022-09-14T11:26:42.166Z,90.74
2022-09-14T11:29:19.741Z,89.95
2022-09-14T11:32:16.820Z,89.88
2022-09-14T11:34:44.470Z,87.84
2022-09-14T11:37:15.770Z,88.11
2022-09-14T11:39:48.704Z,88.31
2022-09-14T11:42:21.587Z,87.95
2022-09-14T11:44:52.446Z,87.28
2022-09-14T11:47:23.938Z,87.19
2022-09-14T11:49:57.476Z,88.30
2022-09-14T11:52:27.940Z,87.54
2022-09-14T11:54:56.008Z,87.39
2022-09-14T11:57:25.894Z,86.87
2022-09-14T11:59:55.572Z,86.07
2022-09-14T12:02:59.405Z,85.28
2022-09-14T12:05:32.683Z,85.11
2022-09-14T12:08:40.272Z,83.94
2022-09-14T12:11:28.540Z,84.98
2022-09-14T12:14:23.260Z,85.19
2022-09-14T12:17:38.953Z,85.15
2022-09-14T12:20:38.742Z,84.70
2022-09-14T12:23:14.688Z,87.06
2022-09-14T12:25:55.683Z,86.56
2022-09-14T12:28:39.032Z,87.70
2022-09-14T12:31:12.396Z,85.76
2022-09-14T12:33:58.874Z,86.23
2022-09-14T12:37:05.647Z,87.13
2022-09-14T12:39:36.631Z,89.12
2022-09-14T12:42:26.323Z,89.23
2022-09-14T12:44:53.851Z,89.37
2022-09-14T12:47:54.665Z,90.33
2022-09-14T12:50:23.275Z,90.61
2022-09-14T12:53:06.702Z,90.51
2022-09-14T12:55:48.283Z,91.21
2022-09-14T12:58:31.008Z,90.10
2022-09-14T13:01:18.919Z,90.60
2022-09-14T13:03:50.809Z,90.25
2022-09-14T13:06:19.223Z,89.63
2022-09-14T13:08:49.210Z,89.25
2022-09-14T13:11:23.675Z,89.27
2022-09-14T13:13:52.866Z,89.58
2022-09-14T13:16:37.284Z,89.02
2022-09-14T13:19:11.326Z,89.95
2022-09-14T13:21:47.255Z,90.28
2022-09-14T13:24:28.677Z,89.99
2022-09-14T13:26:58.559Z,91.48
2022-09-14T13:29:28.065Z,92.38
2022-09-14T13:32:02.380Z,91.93
2022-09-14T13:34:33.975Z,94.37
2022-09-14T13:37:02.205Z,96.37
2022-09-14T13:39:34.418Z,95.68
2022-09-14T13:42:03.034Z,96.15
2022-09-14T13:44:34.128Z,96.02
2022-09-14T13:47:05.051Z,95.75
2022-09-14T13:49:32.715Z,97.01
2022-09-14T13:52:20.151Z,99.04
2022-09-14T13:54:47.710Z,99.29
2022-09-14T13:57:17.841Z,99.99
2022-09-14T14:00:21.032Z,100.00
2022-09-14T14:02:51.078Z,100.00
2022-09-14T14:05:25.100Z,100.00
2022-09-14T14:07:53.126Z,100.00
2022-09-14T14:10:28.055Z,100.00
2022-09-14T14:12:56.076Z,100.00
2022-09-14T14:15:39.548Z,100.00
2022-09-14T14:18:33.180Z,100.00
2022-09-14T14:21:14.941Z,99.67
2022-09-14T14:23:56.777Z,99.59
2022-09-14T14:26:30.808Z,99.07
2022-09-14T14:29:09.352Z,98.59
2022-09-14T14:31:38.270Z,98.56
2022-09-14T14:34:17.456Z,98.36
2022-09-14T14:36:45.445Z,97.95
2022-09-14T14:39:12.894Z,97.70
2022-09-14T14:41:40.372Z,97.54
2022-09-14T14:44:11.419Z,97.19
2022-09-14T14:46:42.152Z,97.48
2022-09-14T14:49:12.580Z,97.28
2022-09-14T14:51:40.020Z,97.23
2022-09-14T14:54:07.972Z,97.19
2022-09-14T14:56:35.828Z,96.93
2022-09-14T14:59:03.274Z,97.41
2022-09-14T15:01:30.788Z,96.87
2022-09-14T15:03:59.662Z,98.17
2022-09-14T15:06:28.476Z,98.73
2022-09-14T15:08:57.033Z,99.25
2022-09-14T15:11:24.676Z,99.59
2022-09-14T15:13:52.241Z,99.86
2022-09-14T15:16:19.772Z,99.73
2022-09-14T15:18:47.198Z,99.92
2022-09-14T15:21:15.932Z,100.00
2022-09-14T15:23:43.326Z,100.00
2022-09-14T15:26:10.712Z,100.00
2022-09-14T15:28:38.564Z,100.00
2022-09-14T15:31:08.050Z,99.89
2022-09-14T15:33:35.611Z,100.00
2022-09-14T15:36:04.156Z,100.00
2022-09-14T15:38:32.931Z,100.00
2022-09-14T15:41:00.364Z,100.00
2022-09-14T15:43:27.760Z,100.00
2022-09-14T15:45:55.464Z,100.00
2022-09-14T15:48:22.967Z,100.00
2022-09-14T15:50:50.778Z,100.00
2022-09-14T15:53:18.303Z,100.00
2022-09-14T15:55:47.358Z,100.00
2022-09-14T15:58:14.800Z,100.00
2022-09-14T16:00:44.372Z,100.00
2022-09-14T16:03:12.039Z,100.00
2022-09-14T16:05:39.862Z,100.00
2022-09-14T16:08:07.633Z,100.00
2022-09-14T16:10:35.551Z,100.00
2022-09-14T16:13:05.511Z,100.00
2022-09-14T16:15:32.929Z,100.00
2022-09-14T16:18:00.354Z,100.00
2022-09-14T16:20:27.763Z,100.00
2022-09-14T16:22:55.157Z,100.00
2022-09-14T16:25:22.680Z,100.00
2022-09-14T16:27:50.086Z,100.00
2022-09-14T16:30:18.834Z,100.00
2022-09-14T16:32:46.448Z,100.00
2022-09-14T16:35:13.835Z,100.00
2022-09-14T16:37:41.253Z,100.00
2022-09-14T16:40:09.569Z,100.00
2022-09-14T16:42:37.002Z,100.00
2022-09-14T16:45:04.819Z,99.82
2022-09-14T16:47:33.542Z,99.50
2022-09-14T16:50:00.985Z,98.31
2022-09-14T16:52:29.619Z,98.48
2022-09-14T16:54:57.084Z,98.48
2022-09-14T16:57:26.652Z,98.39
2022-09-14T16:59:54.118Z,98.31
2022-09-14T17:02:21.938Z,98.25
2022-09-14T17:04:50.787Z,97.80
2022-09-14T17:07:18.185Z,98.01
2022-09-14T17:09:45.873Z,97.78
2022-09-14T17:12:13.306Z,97.34
2022-09-14T17:14:40.947Z,97.31
2022-09-14T17:17:08.412Z,96.68
2022-09-14T17:19:37.078Z,95.94
2022-09-14T17:22:08.280Z,95.73
2022-09-14T17:24:35.742Z,96.39
2022-09-14T17:27:03.171Z,96.92
2022-09-14T17:29:31.858Z,97.27
2022-09-14T17:32:01.691Z,97.39
2022-09-14T17:34:29.162Z,97.59
2022-09-14T17:36:56.580Z,98.07
2022-09-14T17:39:26.456Z,98.42
2022-09-14T17:41:53.909Z,98.84
2022-09-14T17:44:22.580Z,98.97
2022-09-14T17:46:52.965Z,98.99
2022-09-14T17:49:22.416Z,98.70
2022-09-14T17:51:50.092Z,98.79
2022-09-14T17:54:17.798Z,99.28
2022-09-14T17:56:46.655Z,99.33
2022-09-14T17:59:16.392Z,99.77
2022-09-14T18:01:44.018Z,100.00
2022-09-14T18:04:13.275Z,100.00
2022-09-14T18:06:43.308Z,100.00
2022-09-14T18:09:13.185Z,100.00
2022-09-14T18:11:41.279Z,100.00
2022-09-14T18:14:12.889Z,100.00
2022-09-14T18:16:41.408Z,100.00
2022-09-14T18:19:09.120Z,100.00
2022-09-14T18:21:36.813Z,100.00
2022-09-14T18:24:05.355Z,100.00
2022-09-14T18:26:33.194Z,100.00
2022-09-14T18:29:00.636Z,100.00
2022-09-14T18:31:29.491Z,100.00
2022-09-14T18:33:59.006Z,100.00
2022-09-14T18:36:29.341Z,99.81
2022-09-14T18:38:57.742Z,100.00
2022-09-14T18:41:25.270Z,100.00
2022-09-14T18:43:53.979Z,100.00
2022-09-14T18:46:27.139Z,99.43
2022-09-14T18:48:58.507Z,99.47
2022-09-14T18:51:26.916Z,99.13
2022-09-14T18:53:58.042Z,99.38
2022-09-14T18:56:25.588Z,99.46
2022-09-14T18:58:53.048Z,99.51
2022-09-14T19:01:20.583Z,99.24
2022-09-14T19:03:48.727Z,99.36
2022-09-14T19:06:19.514Z,99.75
2022-09-14T19:08:47.584Z,99.06
2022-09-14T19:11:17.844Z,98.98
2022-09-14T19:13:45.991Z,99.01
2022-09-14T19:16:15.851Z,98.59
2022-09-14T19:18:44.620Z,98.72
2022-09-14T19:21:13.816Z,99.13
2022-09-14T19:23:43.184Z,99.37
2022-09-14T19:26:12.908Z,99.36
2022-09-14T19:28:40.380Z,99.09
2022-09-14T19:31:08.677Z,99.01
2022-09-14T19:33:36.956Z,99.03
2022-09-14T19:36:05.843Z,99.47
2022-09-14T19:38:33.753Z,99.74
2022-09-14T19:41:02.865Z,99.35
2022-09-14T19:43:32.330Z,99.78
2022-09-14T19:46:02.762Z,99.41
2022-09-14T19:48:30.296Z,99.59
2022-09-14T19:51:00.323Z,99.27
2022-09-14T19:53:28.329Z,99.56
2022-09-14T19:55:56.214Z,99.52
2022-09-14T19:58:28.500Z,99.65
2022-09-14T20:00:56.749Z,99.54
2022-09-14T20:03:25.047Z,99.21
2022-09-14T20:06:00.262Z,99.92
2022-09-14T20:08:28.020Z,100.00
2022-09-14T20:10:55.758Z,100.00
2022-09-14T20:13:24.598Z,99.56
2022-09-14T20:15:52.079Z,99.50
2022-09-14T20:18:19.551Z,99.52
2022-09-14T20:20:46.973Z,99.56
2022-09-14T20:23:15.311Z,99.98
2022-09-14T20:25:42.742Z,100.00
2022-09-14T20:28:10.206Z,100.00
2022-09-14T20:30:38.975Z,100.00
2022-09-14T20:33:06.407Z,100.00
2022-09-14T20:35:33.850Z,100.00
2022-09-14T20:38:01.359Z,100.00
2022-09-14T20:40:28.930Z,100.00
2022-09-14T20:42:56.393Z,100.00
2022-09-14T20:45:23.836Z,100.00
2022-09-14T20:47:52.602Z,100.00
2022-09-14T20:50:20.035Z,100.00
2022-09-14T20:52:47.462Z,100.00
2022-09-14T20:55:15.093Z,100.00
2022-09-14T20:57:42.541Z,100.00
2022-09-14T21:00:11.670Z,100.00
2022-09-14T21:02:39.200Z,100.00
2022-09-14T21:05:08.750Z,100.00
2022-09-14T21:07:36.204Z,100.00
2022-09-14T21:10:03.858Z,100.00
2022-09-14T21:12:31.322Z,100.00
2022-09-14T21:14:58.786Z,100.00
2022-09-14T21:17:26.245Z,100.00
2022-09-14T21:19:53.985Z,100.00
2022-09-14T21:22:22.756Z,100.00
2022-09-14T21:24:50.198Z,100.00
2022-09-14T21:27:17.660Z,100.00
2022-09-14T21:29:45.122Z,100.00
2022-09-14T21:32:12.564Z,100.00
2022-09-14T21:34:40.264Z,100.00
2022-09-14T21:37:08.221Z,100.00
2022-09-14T21:39:37.969Z,100.00
2022-09-14T21:42:05.746Z,100.00
2022-09-14T21:44:35.795Z,100.00
2022-09-14T21:47:04.258Z,100.00
2022-09-14T21:49:32.059Z,100.00
2022-09-14T21:52:02.616Z,100.00
2022-09-14T21:54:30.053Z,100.00
2022-09-14T21:56:58.818Z,100.00
2022-09-14T21:59:26.273Z,100.00
2022-09-14T22:01:53.837Z,100.00
2022-09-14T22:04:25.038Z,100.00
2022-09-14T22:06:53.449Z,100.00
2022-09-14T22:09:23.209Z,100.00
2022-09-14T22:11:50.649Z,100.00
2022-09-14T22:14:21.153Z,100.00
2022-09-14T22:16:49.627Z,100.00
2022-09-14T22:19:19.475Z,100.00
2022-09-14T22:21:47.432Z,100.00
2022-09-14T22:24:18.854Z,100.00
2022-09-14T22:26:46.467Z,100.00
2022-09-14T22:29:15.789Z,100.00
2022-09-14T22:31:45.744Z,100.00
2022-09-14T22:34:14.373Z,100.00
2022-09-14T22:36:42.054Z,100.00
2022-09-14T22:39:10.657Z,100.00
2022-09-14T22:41:38.717Z,100.00
2022-09-14T22:44:07.022Z,100.00
2022-09-14T22:46:35.350Z,100.00
2022-09-14T22:49:04.196Z,100.00
2022-09-14T22:51:31.622Z,100.00
2022-09-14T22:53:59.314Z,100.00
2022-09-14T22:56:28.877Z,100.00
2022-09-14T22:58:56.794Z,100.00
2022-09-14T23:01:26.831Z,100.00
2022-09-14T23:03:59.202Z,100.00
2022-09-14T23:06:29.822Z,100.00
2022-09-14T23:08:57.865Z,100.00
2022-09-14T23:11:25.400Z,100.00
2022-09-14T23:13:53.380Z,100.00
2022-09-14T23:16:25.839Z,100.00
2022-09-14T23:18:55.126Z,100.00
2022-09-14T23:21:22.615Z,100.00
2022-09-14T23:23:53.309Z,100.00
2022-09-14T23:26:21.388Z,100.00
2022-09-14T23:28:52.129Z,100.00
2022-09-14T23:31:19.645Z,100.00
2022-09-14T23:33:50.709Z,100.00
2022-09-14T23:36:18.324Z,100.00
2022-09-14T23:38:47.913Z,100.00
2022-09-14T23:41:17.784Z,100.00
2022-09-14T23:43:45.293Z,100.00
2022-09-14T23:46:13.147Z,100.00
2022-09-14T23:48:40.740Z,100.00
2022-09-14T23:51:09.578Z,100.00
2022-09-14T23:53:37.903Z,100.00
2022-09-14T23:56:06.453Z,99.25
2022-09-14T23:58:35.224Z,97.97
